Union Manta — ORKJ — position and weather

sailwx.info

Track history (hours):
 
Tides and Currents Weather Stations Pressure Air Temp Water Temp Dewpoint Dewpoint Depression Visibility Wind Speed Wind Dir Waves Ship Positions

Union Manta

Last reported at 2016-Feb-11 18:33 UTC. Time now 2016-Feb-11 19:14 UTC.
Position N 52°09' E 003°46'.

Length 75 m; draft 6.5 m.

Type: Other ship. MMSI: 205340000.

Date/timePositionNaut miles runAvg speedWind from/ knotsBaromVisibWave heightAir tempDewpointWater temp
2016-Feb-11 18:33N 52°09' E 003°46'9 8.8
2016-Feb-11 17:33N 52°18' E 003°47'11 9.6
2016-Feb-11 16:23N 52°29' E 003°51'7510.3
2016-Feb-11 09:10N 53°32' E 004°57'6 9.6
2016-Feb-11 08:33N 53°34' E 005°06'9 9.5
2016-Feb-11 07:33N 53°38' E 005°21'10 9.6
2016-Feb-11 06:33N 53°41' E 005°37'1110.5
2016-Feb-11 05:33N 53°44' E 005°53'1111.3
2016-Feb-11 04:33N 53°48' E 006°11'1111.4
2016-Feb-11 03:33N 53°51' E 006°30'1110.9
2016-Feb-11 02:33N 53°54' E 006°48'1010.2
2016-Feb-11 01:33N 53°56' E 007°05'10 9.7
2016-Feb-11 00:33N 53°59' E 007°21'9 9.3
2016-Feb-10 23:33N 54°01' E 007°36'9 9.4
2016-Feb-10 22:33N 54°02' E 007°52'9 9.3
2016-Feb-10 21:33N 54°01' E 008°07'5 5.3
2016-Feb-10 20:33N 54°00' E 008°16'1212.3
2016-Feb-10 19:33N 53°58' E 008°37'1413.8
2016-Feb-10 18:33N 53°51' E 008°57'1413.9
2016-Feb-10 17:34N 53°50' E 009°21'1515.4
2016-Feb-10 16:33N 53°37' E 009°34'1111.5
2016-Feb-10 15:34N 53°33' E 009°52'4 3.6
2016-Feb-10 14:33N 53°32' E 009°58'0 0.0
2016-Feb-10 13:34N 53°32' E 009°58'0 0.0
2016-Feb-10 12:33N 53°32' E 009°58'0 0.0
2016-Feb-10 11:34N 53°32' E 009°58'0 0.0
2016-Feb-10 10:34N 53°32' E 009°58'0 0.0
2016-Feb-10 09:33N 53°32' E 009°58'0 0.0
2016-Feb-10 08:33N 53°32' E 009°58'0 0.0
2016-Feb-10 07:34N 53°32' E 009°58'0 0.0
2016-Feb-10 06:33N 53°32' E 009°58'0 0.0
2016-Feb-10 05:34N 53°32' E 009°58'0 0.0
2016-Feb-10 04:34N 53°32' E 009°58'0 0.0
2016-Feb-10 03:32N 53°32' E 009°58'0 0.0
2016-Feb-10 02:32N 53°32' E 009°58'0 0.0
2016-Feb-10 01:33N 53°32' E 009°58'0 0.0
2016-Feb-10 00:33N 53°32' E 009°58'0 0.0
2016-Feb-09 23:32N 53°32' E 009°58'0 0.0
2016-Feb-09 22:32N 53°32' E 009°58'0 0.0
2016-Feb-09 21:31N 53°32' E 009°58'0 0.0
2016-Feb-09 20:32N 53°32' E 009°58'0 0.0
2016-Feb-09 19:31N 53°32' E 009°58'0 0.0
2016-Feb-09 18:32N 53°32' E 009°58'0 0.0
2016-Feb-09 17:31N 53°32' E 009°58'0 0.0
2016-Feb-09 16:32N 53°32' E 009°58'0 0.0
2016-Feb-09 15:32N 53°32' E 009°58'0 0.0
2016-Feb-09 14:33N 53°32' E 009°58'0 0.0
2016-Feb-09 13:33N 53°32' E 009°58'0 0.0
2016-Feb-09 12:31N 53°32' E 009°58'0 0.0
2016-Feb-09 11:31N 53°32' E 009°58'0 0.0
2016-Feb-09 10:31N 53°32' E 009°58'0 0.0
2016-Feb-09 09:33N 53°32' E 009°58'0 0.0
2016-Feb-09 08:33N 53°32' E 009°58'1 1.5
2016-Feb-09 07:33N 53°32' E 009°55'0 0.2
2016-Feb-09 06:33N 53°32' E 009°55'0 0.3
2016-Feb-09 05:33N 53°32' E 009°55'2 1.9
2016-Feb-09 04:33N 53°33' E 009°52'7 7.0
2016-Feb-09 03:33N 53°34' E 009°40'2 2.5
2016-Feb-09 02:33N 53°35' E 009°37'0 0.1
2016-Feb-09 01:33N 53°35' E 009°37'0 0.3
2016-Feb-09 00:32N 53°35' E 009°37'0 0.0
2016-Feb-08 23:33N 53°35' E 009°37'0 0.0
2016-Feb-08 22:30N 53°35' E 009°37'0 0.0
2016-Feb-08 21:31N 53°35' E 009°37'0 0.0
2016-Feb-08 20:32N 53°35' E 009°37'0 0.0
2016-Feb-08 19:33N 53°35' E 009°37'0 0.1
2016-Feb-08 18:33N 53°35' E 009°37'0 0.3
2016-Feb-08 17:33N 53°35' E 009°38'0 0.0
2016-Feb-08 16:33N 53°35' E 009°38'0 0.2
2016-Feb-08 15:33N 53°35' E 009°38'0 0.4
2016-Feb-08 14:33N 53°35' E 009°37'0 0.0
2016-Feb-08 13:33N 53°35' E 009°37'0 0.0
2016-Feb-08 12:33N 53°35' E 009°37'0 0.0
2016-Feb-08 11:33N 53°35' E 009°37'0 0.0
2016-Feb-08 10:34N 53°35' E 009°37'0 0.0
2016-Feb-08 09:33N 53°35' E 009°37'0 0.0
2016-Feb-08 08:33N 53°35' E 009°37'0 0.4
2016-Feb-08 07:33N 53°35' E 009°37'2 2.4
2016-Feb-08 06:33N 53°37' E 009°34'3 3.1
2016-Feb-08 05:33N 53°39' E 009°31'0 0.0
2016-Feb-08 04:34N 53°39' E 009°31'0 0.0
2016-Feb-08 03:33N 53°39' E 009°31'0 0.0
2016-Feb-08 02:33N 53°39' E 009°31'0 0.0
2016-Feb-08 01:33N 53°39' E 009°31'0 0.0
2016-Feb-08 00:33N 53°39' E 009°31'0 0.0
2016-Feb-07 23:33N 53°39' E 009°31'0 0.0
2016-Feb-07 22:33N 53°39' E 009°31'0 0.0
2016-Feb-07 21:32N 53°39' E 009°31'0 0.0
2016-Feb-07 20:33N 53°39' E 009°31'0 0.0
2016-Feb-07 19:33N 53°39' E 009°31'0 0.0
2016-Feb-07 18:33N 53°39' E 009°31'0 0.0
2016-Feb-07 17:33N 53°39' E 009°31'0 0.0
2016-Feb-07 16:33N 53°39' E 009°31'0 0.0
2016-Feb-07 15:33N 53°39' E 009°31'0 0.0
2016-Feb-07 14:33N 53°39' E 009°31'0 0.0
2016-Feb-07 13:33N 53°39' E 009°31'0 0.0
2016-Feb-07 12:33N 53°39' E 009°31'0 0.0
2016-Feb-07 11:33N 53°39' E 009°31'0 0.0
2016-Feb-07 10:33N 53°39' E 009°31'0 0.0
2016-Feb-07 09:33N 53°39' E 009°31'0 0.0
2016-Feb-07 08:33N 53°39' E 009°31'0 0.0
2016-Feb-07 07:33N 53°39' E 009°31'0 0.0
2016-Feb-07 06:33N 53°39' E 009°31'0 0.0
2016-Feb-07 05:33N 53°39' E 009°31'0 0.0
2016-Feb-07 04:33N 53°39' E 009°31'0 0.0
2016-Feb-07 03:33N 53°39' E 009°31'0 0.0
2016-Feb-07 02:33N 53°39' E 009°31'0 0.0
2016-Feb-07 01:33N 53°39' E 009°31'0 0.0
2016-Feb-07 00:33N 53°39' E 009°31'0 0.0
2016-Feb-06 23:33N 53°39' E 009°31'0 0.0
2016-Feb-06 22:33N 53°39' E 009°31'0 0.0
2016-Feb-06 21:33N 53°39' E 009°31'0 0.0
2016-Feb-06 20:28N 53°39' E 009°31'0 0.0
2016-Feb-06 19:33N 53°39' E 009°31'0 0.0
2016-Feb-06 18:33N 53°39' E 009°31'0 0.0
2016-Feb-06 17:33N 53°39' E 009°31'0 0.0
2016-Feb-06 16:33N 53°39' E 009°31'0 0.0
2016-Feb-06 15:33N 53°39' E 009°31'0 0.0
2016-Feb-06 14:33N 53°39' E 009°31'0 0.0
2016-Feb-06 13:33N 53°39' E 009°31'0 0.0
2016-Feb-06 12:33N 53°39' E 009°31'0 0.0
2016-Feb-06 11:33N 53°39' E 009°31'0 0.0
2016-Feb-06 10:33N 53°39' E 009°31'0 0.0
2016-Feb-06 09:33N 53°39' E 009°31'0 0.0
2016-Feb-06 08:33N 53°39' E 009°31'0 0.0
2016-Feb-06 07:32N 53°39' E 009°31'0 0.0
2016-Feb-06 06:33N 53°39' E 009°31'0 0.0
2016-Feb-06 05:33N 53°39' E 009°31'0 0.0
2016-Feb-06 04:33N 53°39' E 009°31'0 0.0
2016-Feb-06 03:32N 53°39' E 009°31'0 0.0
2016-Feb-06 02:33N 53°39' E 009°31'0 0.0
2016-Feb-06 01:33N 53°39' E 009°31'0 0.0
2016-Feb-06 00:33N 53°39' E 009°31'0 0.0
2016-Feb-05 23:33N 53°39' E 009°31'0 0.0
2016-Feb-05 22:33N 53°39' E 009°31'0 0.0
2016-Feb-05 21:33N 53°39' E 009°31'0 0.2
2016-Feb-05 20:32N 53°40' E 009°31'1212.6
2016-Feb-05 19:33N 53°50' E 009°20'1413.8
2016-Feb-05 18:33N 53°51' E 008°57'1313.5
2016-Feb-05 17:33N 53°57' E 008°37'1514.9
2016-Feb-05 16:33N 53°60' E 008°12'1010.1
2016-Feb-05 15:33N 53°58' E 007°55'9 9.3
2016-Feb-05 14:33N 53°56' E 007°40'9 9.3
2016-Feb-05 13:33N 53°54' E 007°24'9 9.0
2016-Feb-05 12:33N 53°52' E 007°09'9 9.1
2016-Feb-05 11:33N 53°50' E 006°55'9 9.1
2016-Feb-05 10:33N 53°47' E 006°40'1110.6
2016-Feb-05 09:33N 53°45' E 006°22'1212.2
2016-Feb-05 08:33N 53°42' E 006°02'1212.3
2016-Feb-05 07:33N 53°37' E 005°43'1312.6
2016-Feb-05 06:32N 53°33' E 005°22'1312.8
2016-Feb-05 05:33N 53°29' E 005°02'1312.8
2016-Feb-05 04:33N 53°24' E 004°43'1313.1
2016-Feb-05 03:33N 53°12' E 004°34'1313.2
2016-Feb-05 02:33N 53°01' E 004°22'1313.2
2016-Feb-05 01:33N 52°49' E 004°13'1313.4
2016-Feb-05 00:34N 52°38' E 004°00'1413.5
2016-Feb-04 23:33N 52°25' E 003°53'1313.5
2016-Feb-04 22:33N 52°11' E 003°54'1110.9
2016-Feb-04 21:33N 52°01' E 003°59'1313.1
2016-Feb-04 20:33N 51°54' E 004°17'5 5.2
2016-Feb-04 19:33N 51°53' E 004°25'0 0.0
2016-Feb-04 18:33N 51°53' E 004°25'0 0.0
2016-Feb-04 17:33N 51°53' E 004°25'0 0.0
2016-Feb-04 16:33N 51°53' E 004°25'0 0.0
2016-Feb-04 15:33N 51°53' E 004°25'0 0.0
2016-Feb-04 14:33N 51°53' E 004°25'0 0.0
2016-Feb-04 13:33N 51°53' E 004°25'0 0.0
2016-Feb-04 12:33N 51°53' E 004°25'0 0.0
2016-Feb-04 11:34N 51°53' E 004°25'0 0.0
2016-Feb-04 10:33N 51°53' E 004°25'0 0.0
2016-Feb-04 09:31N 51°53' E 004°25'0 0.0
2016-Feb-04 08:31N 51°53' E 004°25'0 0.0
2016-Feb-04 07:31N 51°53' E 004°25'0 0.0
2016-Feb-04 06:31N 51°53' E 004°25'0 0.0
2016-Feb-04 05:31N 51°53' E 004°25'0 0.0
2016-Feb-04 04:31N 51°53' E 004°25'0 0.0
2016-Feb-04 03:31N 51°53' E 004°25'0 0.0
2016-Feb-04 02:31N 51°53' E 004°25'0 0.0
2016-Feb-04 01:31N 51°53' E 004°25'0 0.0
2016-Feb-04 00:31N 51°53' E 004°25'0 0.0
2016-Feb-03 23:31N 51°53' E 004°25'0 0.0
2016-Feb-03 22:31N 51°53' E 004°25'0 0.0
2016-Feb-03 21:31N 51°53' E 004°25'0 0.0
2016-Feb-03 20:31N 51°53' E 004°25'0 0.0
2016-Feb-03 19:31N 51°53' E 004°25'0 0.0
2016-Feb-03 18:31N 51°53' E 004°25'0 0.0
2016-Feb-03 17:31N 51°53' E 004°25'0 0.0
2016-Feb-03 16:33N 51°53' E 004°25'0 0.0
2016-Feb-03 15:34N 51°53' E 004°25'0 0.0
2016-Feb-03 14:33N 51°53' E 004°25'0 0.0
2016-Feb-03 13:34N 51°53' E 004°25'0 0.0
2016-Feb-03 12:33N 51°53' E 004°25'0 0.0
2016-Feb-03 11:33N 51°53' E 004°25'0 0.0
2016-Feb-03 10:33N 51°53' E 004°25'0 0.0
2016-Feb-03 09:33N 51°53' E 004°25'0 0.0
2016-Feb-03 08:33N 51°53' E 004°25'0 0.0
2016-Feb-03 07:33N 51°53' E 004°25'0 0.0
2016-Feb-03 06:33N 51°53' E 004°25'0 0.0
2016-Feb-03 05:33N 51°53' E 004°25'0 0.0
2016-Feb-03 04:33N 51°53' E 004°25'0 0.0
2016-Feb-03 03:33N 51°53' E 004°25'0 0.0
2016-Feb-03 02:33N 51°53' E 004°25'0 0.0
2016-Feb-03 01:33N 51°53' E 004°25'0 0.0
2016-Feb-02 23:33N 51°53' E 004°25'0 0.0
2016-Feb-02 22:33N 51°53' E 004°25'0 0.0
2016-Feb-02 21:33N 51°53' E 004°25'0 0.0
2016-Feb-02 20:33N 51°53' E 004°25'0 0.0
2016-Feb-02 19:33N 51°53' E 004°25'0 0.0
2016-Feb-02 18:33N 51°53' E 004°25'0 0.0
2016-Feb-02 17:33N 51°53' E 004°25'0 0.0
2016-Feb-02 16:34N 51°53' E 004°25'0 0.0
2016-Feb-02 15:33N 51°53' E 004°25'0 0.0
2016-Feb-02 14:33N 51°53' E 004°25'0 0.0
2016-Feb-02 13:33N 51°53' E 004°25'0 0.0
2016-Feb-02 12:33N 51°53' E 004°25'0 0.0
2016-Feb-02 11:34N 51°53' E 004°25'0 0.0
2016-Feb-02 10:33N 51°53' E 004°25'0 0.0
2016-Feb-02 09:33N 51°53' E 004°25'0 0.0
2016-Feb-02 08:33N 51°53' E 004°25'0 0.0
2016-Feb-02 07:33N 51°53' E 004°25'0 0.0
2016-Feb-02 06:33N 51°53' E 004°25'0 0.0
2016-Feb-02 05:33N 51°53' E 004°25'0 0.0
2016-Feb-02 04:33N 51°53' E 004°25'0 0.0
2016-Feb-02 03:33N 51°53' E 004°25'0 0.0
2016-Feb-02 02:33N 51°53' E 004°25'0 0.0
2016-Feb-02 01:33N 51°53' E 004°25'0 0.0
2016-Feb-02 00:33N 51°53' E 004°25'0 0.0
2016-Feb-01 23:33N 51°53' E 004°25'0 0.0
2016-Feb-01 22:33N 51°53' E 004°25'0 0.0
2016-Feb-01 21:30N 51°53' E 004°25'0 0.0
2016-Feb-01 20:33N 51°53' E 004°25'0 0.0
2016-Feb-01 19:33N 51°53' E 004°25'0 0.0
2016-Feb-01 18:33N 51°53' E 004°25'  
Track history (hours):
 
Tides and Currents Weather Stations Pressure Air Temp Water Temp Dewpoint Dewpoint Depression Visibility Wind Speed Wind Dir Waves Ship Positions

Union Manta

Last reported at 2016-Feb-11 18:33 UTC. Time now 2016-Feb-11 19:14 UTC.
Position N 52°09' E 003°46'.

Length 75 m; draft 6.5 m.

Type: Other ship. MMSI: 205340000.

Date/timePositionNaut miles runAvg speedWind from/ knotsBaromVisibWave heightAir tempDewpointWater temp
2016-Feb-11 18:33N 52°09' E 003°46'9 8.8
2016-Feb-11 17:33N 52°18' E 003°47'11 9.6
2016-Feb-11 16:23N 52°29' E 003°51'7510.3
2016-Feb-11 09:10N 53°32' E 004°57'6 9.6
2016-Feb-11 08:33N 53°34' E 005°06'9 9.5
2016-Feb-11 07:33N 53°38' E 005°21'10 9.6
2016-Feb-11 06:33N 53°41' E 005°37'1110.5
2016-Feb-11 05:33N 53°44' E 005°53'1111.3
2016-Feb-11 04:33N 53°48' E 006°11'1111.4
2016-Feb-11 03:33N 53°51' E 006°30'1110.9
2016-Feb-11 02:33N 53°54' E 006°48'1010.2
2016-Feb-11 01:33N 53°56' E 007°05'10 9.7
2016-Feb-11 00:33N 53°59' E 007°21'9 9.3
2016-Feb-10 23:33N 54°01' E 007°36'9 9.4
2016-Feb-10 22:33N 54°02' E 007°52'9 9.3
2016-Feb-10 21:33N 54°01' E 008°07'5 5.3
2016-Feb-10 20:33N 54°00' E 008°16'1212.3
2016-Feb-10 19:33N 53°58' E 008°37'1413.8
2016-Feb-10 18:33N 53°51' E 008°57'1413.9
2016-Feb-10 17:34N 53°50' E 009°21'1515.4
2016-Feb-10 16:33N 53°37' E 009°34'1111.5
2016-Feb-10 15:34N 53°33' E 009°52'4 3.6
2016-Feb-10 14:33N 53°32' E 009°58'0 0.0
2016-Feb-10 13:34N 53°32' E 009°58'0 0.0
2016-Feb-10 12:33N 53°32' E 009°58'0 0.0
2016-Feb-10 11:34N 53°32' E 009°58'0 0.0
2016-Feb-10 10:34N 53°32' E 009°58'0 0.0
2016-Feb-10 09:33N 53°32' E 009°58'0 0.0
2016-Feb-10 08:33N 53°32' E 009°58'0 0.0
2016-Feb-10 07:34N 53°32' E 009°58'0 0.0
2016-Feb-10 06:33N 53°32' E 009°58'0 0.0
2016-Feb-10 05:34N 53°32' E 009°58'0 0.0
2016-Feb-10 04:34N 53°32' E 009°58'0 0.0
2016-Feb-10 03:32N 53°32' E 009°58'0 0.0
2016-Feb-10 02:32N 53°32' E 009°58'0 0.0
2016-Feb-10 01:33N 53°32' E 009°58'0 0.0
2016-Feb-10 00:33N 53°32' E 009°58'0 0.0
2016-Feb-09 23:32N 53°32' E 009°58'0 0.0
2016-Feb-09 22:32N 53°32' E 009°58'0 0.0
2016-Feb-09 21:31N 53°32' E 009°58'0 0.0
2016-Feb-09 20:32N 53°32' E 009°58'0 0.0
2016-Feb-09 19:31N 53°32' E 009°58'0 0.0
2016-Feb-09 18:32N 53°32' E 009°58'0 0.0
2016-Feb-09 17:31N 53°32' E 009°58'0 0.0
2016-Feb-09 16:32N 53°32' E 009°58'0 0.0
2016-Feb-09 15:32N 53°32' E 009°58'0 0.0
2016-Feb-09 14:33N 53°32' E 009°58'0 0.0
2016-Feb-09 13:33N 53°32' E 009°58'0 0.0
2016-Feb-09 12:31N 53°32' E 009°58'0 0.0
2016-Feb-09 11:31N 53°32' E 009°58'0 0.0
2016-Feb-09 10:31N 53°32' E 009°58'0 0.0
2016-Feb-09 09:33N 53°32' E 009°58'0 0.0
2016-Feb-09 08:33N 53°32' E 009°58'1 1.5
2016-Feb-09 07:33N 53°32' E 009°55'0 0.2
2016-Feb-09 06:33N 53°32' E 009°55'0 0.3
2016-Feb-09 05:33N 53°32' E 009°55'2 1.9
2016-Feb-09 04:33N 53°33' E 009°52'7 7.0
2016-Feb-09 03:33N 53°34' E 009°40'2 2.5
2016-Feb-09 02:33N 53°35' E 009°37'0 0.1
2016-Feb-09 01:33N 53°35' E 009°37'0 0.3
2016-Feb-09 00:32N 53°35' E 009°37'0 0.0
2016-Feb-08 23:33N 53°35' E 009°37'0 0.0
2016-Feb-08 22:30N 53°35' E 009°37'0 0.0
2016-Feb-08 21:31N 53°35' E 009°37'0 0.0
2016-Feb-08 20:32N 53°35' E 009°37'0 0.0
2016-Feb-08 19:33N 53°35' E 009°37'0 0.1
2016-Feb-08 18:33N 53°35' E 009°37'0 0.3
2016-Feb-08 17:33N 53°35' E 009°38'0 0.0
2016-Feb-08 16:33N 53°35' E 009°38'0 0.2
2016-Feb-08 15:33N 53°35' E 009°38'0 0.4
2016-Feb-08 14:33N 53°35' E 009°37'0 0.0
2016-Feb-08 13:33N 53°35' E 009°37'0 0.0
2016-Feb-08 12:33N 53°35' E 009°37'0 0.0
2016-Feb-08 11:33N 53°35' E 009°37'0 0.0
2016-Feb-08 10:34N 53°35' E 009°37'0 0.0
2016-Feb-08 09:33N 53°35' E 009°37'0 0.0
2016-Feb-08 08:33N 53°35' E 009°37'0 0.4
2016-Feb-08 07:33N 53°35' E 009°37'2 2.4
2016-Feb-08 06:33N 53°37' E 009°34'3 3.1
2016-Feb-08 05:33N 53°39' E 009°31'0 0.0
2016-Feb-08 04:34N 53°39' E 009°31'0 0.0
2016-Feb-08 03:33N 53°39' E 009°31'0 0.0
2016-Feb-08 02:33N 53°39' E 009°31'0 0.0
2016-Feb-08 01:33N 53°39' E 009°31'0 0.0
2016-Feb-08 00:33N 53°39' E 009°31'0 0.0
2016-Feb-07 23:33N 53°39' E 009°31'0 0.0
2016-Feb-07 22:33N 53°39' E 009°31'0 0.0
2016-Feb-07 21:32N 53°39' E 009°31'0 0.0
2016-Feb-07 20:33N 53°39' E 009°31'0 0.0
2016-Feb-07 19:33N 53°39' E 009°31'0 0.0
2016-Feb-07 18:33N 53°39' E 009°31'0 0.0
2016-Feb-07 17:33N 53°39' E 009°31'0 0.0
2016-Feb-07 16:33N 53°39' E 009°31'0 0.0
2016-Feb-07 15:33N 53°39' E 009°31'0 0.0
2016-Feb-07 14:33N 53°39' E 009°31'0 0.0
2016-Feb-07 13:33N 53°39' E 009°31'0 0.0
2016-Feb-07 12:33N 53°39' E 009°31'0 0.0
2016-Feb-07 11:33N 53°39' E 009°31'0 0.0
2016-Feb-07 10:33N 53°39' E 009°31'0 0.0
2016-Feb-07 09:33N 53°39' E 009°31'0 0.0
2016-Feb-07 08:33N 53°39' E 009°31'0 0.0
2016-Feb-07 07:33N 53°39' E 009°31'0 0.0
2016-Feb-07 06:33N 53°39' E 009°31'0 0.0
2016-Feb-07 05:33N 53°39' E 009°31'0 0.0
2016-Feb-07 04:33N 53°39' E 009°31'0 0.0
2016-Feb-07 03:33N 53°39' E 009°31'0 0.0
2016-Feb-07 02:33N 53°39' E 009°31'0 0.0
2016-Feb-07 01:33N 53°39' E 009°31'0 0.0
2016-Feb-07 00:33N 53°39' E 009°31'0 0.0
2016-Feb-06 23:33N 53°39' E 009°31'0 0.0
2016-Feb-06 22:33N 53°39' E 009°31'0 0.0
2016-Feb-06 21:33N 53°39' E 009°31'0 0.0
2016-Feb-06 20:28N 53°39' E 009°31'0 0.0
2016-Feb-06 19:33N 53°39' E 009°31'0 0.0
2016-Feb-06 18:33N 53°39' E 009°31'0 0.0
2016-Feb-06 17:33N 53°39' E 009°31'0 0.0
2016-Feb-06 16:33N 53°39' E 009°31'0 0.0
2016-Feb-06 15:33N 53°39' E 009°31'0 0.0
2016-Feb-06 14:33N 53°39' E 009°31'0 0.0
2016-Feb-06 13:33N 53°39' E 009°31'0 0.0
2016-Feb-06 12:33N 53°39' E 009°31'0 0.0
2016-Feb-06 11:33N 53°39' E 009°31'0 0.0
2016-Feb-06 10:33N 53°39' E 009°31'0 0.0
2016-Feb-06 09:33N 53°39' E 009°31'0 0.0
2016-Feb-06 08:33N 53°39' E 009°31'0 0.0
2016-Feb-06 07:32N 53°39' E 009°31'0 0.0
2016-Feb-06 06:33N 53°39' E 009°31'0 0.0
2016-Feb-06 05:33N 53°39' E 009°31'0 0.0
2016-Feb-06 04:33N 53°39' E 009°31'0 0.0
2016-Feb-06 03:32N 53°39' E 009°31'0 0.0
2016-Feb-06 02:33N 53°39' E 009°31'0 0.0
2016-Feb-06 01:33N 53°39' E 009°31'0 0.0
2016-Feb-06 00:33N 53°39' E 009°31'0 0.0
2016-Feb-05 23:33N 53°39' E 009°31'0 0.0
2016-Feb-05 22:33N 53°39' E 009°31'0 0.0
2016-Feb-05 21:33N 53°39' E 009°31'0 0.2
2016-Feb-05 20:32N 53°40' E 009°31'1212.6
2016-Feb-05 19:33N 53°50' E 009°20'1413.8
2016-Feb-05 18:33N 53°51' E 008°57'1313.5
2016-Feb-05 17:33N 53°57' E 008°37'1514.9
2016-Feb-05 16:33N 53°60' E 008°12'1010.1
2016-Feb-05 15:33N 53°58' E 007°55'9 9.3
2016-Feb-05 14:33N 53°56' E 007°40'9 9.3
2016-Feb-05 13:33N 53°54' E 007°24'9 9.0
2016-Feb-05 12:33N 53°52' E 007°09'9 9.1
2016-Feb-05 11:33N 53°50' E 006°55'9 9.1
2016-Feb-05 10:33N 53°47' E 006°40'1110.6
2016-Feb-05 09:33N 53°45' E 006°22'1212.2
2016-Feb-05 08:33N 53°42' E 006°02'1212.3
2016-Feb-05 07:33N 53°37' E 005°43'1312.6
2016-Feb-05 06:32N 53°33' E 005°22'1312.8
2016-Feb-05 05:33N 53°29' E 005°02'1312.8
2016-Feb-05 04:33N 53°24' E 004°43'1313.1
2016-Feb-05 03:33N 53°12' E 004°34'1313.2
2016-Feb-05 02:33N 53°01' E 004°22'1313.2
2016-Feb-05 01:33N 52°49' E 004°13'1313.4
2016-Feb-05 00:34N 52°38' E 004°00'1413.5
2016-Feb-04 23:33N 52°25' E 003°53'1313.5
2016-Feb-04 22:33N 52°11' E 003°54'1110.9
2016-Feb-04 21:33N 52°01' E 003°59'1313.1
2016-Feb-04 20:33N 51°54' E 004°17'5 5.2
2016-Feb-04 19:33N 51°53' E 004°25'0 0.0
2016-Feb-04 18:33N 51°53' E 004°25'0 0.0
2016-Feb-04 17:33N 51°53' E 004°25'0 0.0
2016-Feb-04 16:33N 51°53' E 004°25'0 0.0
2016-Feb-04 15:33N 51°53' E 004°25'0 0.0
2016-Feb-04 14:33N 51°53' E 004°25'0 0.0
2016-Feb-04 13:33N 51°53' E 004°25'0 0.0
2016-Feb-04 12:33N 51°53' E 004°25'0 0.0
2016-Feb-04 11:34N 51°53' E 004°25'0 0.0
2016-Feb-04 10:33N 51°53' E 004°25'0 0.0
2016-Feb-04 09:31N 51°53' E 004°25'0 0.0
2016-Feb-04 08:31N 51°53' E 004°25'0 0.0
2016-Feb-04 07:31N 51°53' E 004°25'0 0.0
2016-Feb-04 06:31N 51°53' E 004°25'0 0.0
2016-Feb-04 05:31N 51°53' E 004°25'0 0.0
2016-Feb-04 04:31N 51°53' E 004°25'0 0.0
2016-Feb-04 03:31N 51°53' E 004°25'0 0.0
2016-Feb-04 02:31N 51°53' E 004°25'0 0.0
2016-Feb-04 01:31N 51°53' E 004°25'0 0.0
2016-Feb-04 00:31N 51°53' E 004°25'0 0.0
2016-Feb-03 23:31N 51°53' E 004°25'0 0.0
2016-Feb-03 22:31N 51°53' E 004°25'0 0.0
2016-Feb-03 21:31N 51°53' E 004°25'0 0.0
2016-Feb-03 20:31N 51°53' E 004°25'0 0.0
2016-Feb-03 19:31N 51°53' E 004°25'0 0.0
2016-Feb-03 18:31N 51°53' E 004°25'0 0.0
2016-Feb-03 17:31N 51°53' E 004°25'0 0.0
2016-Feb-03 16:33N 51°53' E 004°25'0 0.0
2016-Feb-03 15:34N 51°53' E 004°25'0 0.0
2016-Feb-03 14:33N 51°53' E 004°25'0 0.0
2016-Feb-03 13:34N 51°53' E 004°25'0 0.0
2016-Feb-03 12:33N 51°53' E 004°25'0 0.0
2016-Feb-03 11:33N 51°53' E 004°25'0 0.0
2016-Feb-03 10:33N 51°53' E 004°25'0 0.0
2016-Feb-03 09:33N 51°53' E 004°25'0 0.0
2016-Feb-03 08:33N 51°53' E 004°25'0 0.0
2016-Feb-03 07:33N 51°53' E 004°25'0 0.0
2016-Feb-03 06:33N 51°53' E 004°25'0 0.0
2016-Feb-03 05:33N 51°53' E 004°25'0 0.0
2016-Feb-03 04:33N 51°53' E 004°25'0 0.0
2016-Feb-03 03:33N 51°53' E 004°25'0 0.0
2016-Feb-03 02:33N 51°53' E 004°25'0 0.0
2016-Feb-03 01:33N 51°53' E 004°25'0 0.0
2016-Feb-02 23:33N 51°53' E 004°25'0 0.0
2016-Feb-02 22:33N 51°53' E 004°25'0 0.0
2016-Feb-02 21:33N 51°53' E 004°25'0 0.0
2016-Feb-02 20:33N 51°53' E 004°25'0 0.0
2016-Feb-02 19:33N 51°53' E 004°25'0 0.0
2016-Feb-02 18:33N 51°53' E 004°25'0 0.0
2016-Feb-02 17:33N 51°53' E 004°25'0 0.0
2016-Feb-02 16:34N 51°53' E 004°25'0 0.0
2016-Feb-02 15:33N 51°53' E 004°25'0 0.0
2016-Feb-02 14:33N 51°53' E 004°25'0 0.0
2016-Feb-02 13:33N 51°53' E 004°25'0 0.0
2016-Feb-02 12:33N 51°53' E 004°25'0 0.0
2016-Feb-02 11:34N 51°53' E 004°25'0 0.0
2016-Feb-02 10:33N 51°53' E 004°25'0 0.0
2016-Feb-02 09:33N 51°53' E 004°25'0 0.0
2016-Feb-02 08:33N 51°53' E 004°25'0 0.0
2016-Feb-02 07:33N 51°53' E 004°25'0 0.0
2016-Feb-02 06:33N 51°53' E 004°25'0 0.0
2016-Feb-02 05:33N 51°53' E 004°25'0 0.0
2016-Feb-02 04:33N 51°53' E 004°25'0 0.0
2016-Feb-02 03:33N 51°53' E 004°25'0 0.0
2016-Feb-02 02:33N 51°53' E 004°25'0 0.0
2016-Feb-02 01:33N 51°53' E 004°25'0 0.0
2016-Feb-02 00:33N 51°53' E 004°25'0 0.0
2016-Feb-01 23:33N 51°53' E 004°25'0 0.0
2016-Feb-01 22:33N 51°53' E 004°25'0 0.0
2016-Feb-01 21:30N 51°53' E 004°25'0 0.0
2016-Feb-01 20:33N 51°53' E 004°25'0 0.0
2016-Feb-01 19:33N 51°53' E 004°25'0 0.0
2016-Feb-01 18:33N 51°53' E 004°25'  

Dump ship's entire track history